Time;durP1;ratioP1;P1;durP2;ratioP2;P2;SDS_P1;SDS_P2;PMS_P1;PMS_P2;Temp;Humidity;BMP_temperature;BMP_pressure;BME280_temperature;BME280_humidity;BME280_pressure;Samples;Min_cycle;Max_cycle;Signal;HPM_P1;HPM_P2
2022/08/03 00:01:40;;;;;;;2.83;2.63;;;;;;;;;;5063417;28;20636;-65
2022/08/03 00:04:06;;;;;;;5.35;2.58;;;;;;;;;;5056862;28;20633;-65
2022/08/03 00:06:32;;;;;;;6.10;3.13;;;;;;;;;;5070206;28;20195;-65
2022/08/03 00:08:57;;;;;;;4.70;2.88;;;;;;;;;;5054369;28;20176;-65
2022/08/03 00:11:23;;;;;;;4.55;2.95;;;;;;;;;;5052354;28;20268;-65
2022/08/03 00:13:48;;;;;;;5.93;3.55;;;;;;;;;;5049749;28;20201;-65
2022/08/03 00:16:14;;;;;;;4.15;3.20;;;;;;;;;;5056183;28;20240;-65
2022/08/03 00:18:39;;;;;;;4.55;2.97;;;;;;;;;;5064078;28;20180;-65
2022/08/03 00:21:05;;;;;;;6.50;2.92;;;;;;;;;;5054263;28;20185;-65
2022/08/03 00:23:30;;;;;;;3.97;2.47;;;;;;;;;;5057487;28;20538;-65
2022/08/03 00:25:56;;;;;;;5.78;3.33;;;;;;;;;;5053746;28;20225;-65
2022/08/03 00:28:22;;;;;;;3.53;2.83;;;;;;;;;;5048246;28;20182;-65
2022/08/03 00:30:47;;;;;;;5.13;2.80;;;;;;;;;;5051548;28;20186;-65
2022/08/03 00:33:13;;;;;;;6.25;2.95;;;;;;;;;;5058775;28;20662;-65
2022/08/03 00:35:38;;;;;;;7.78;3.40;;;;;;;;;;5054865;28;20177;-65
2022/08/03 00:38:04;;;;;;;3.65;2.92;;;;;;;;;;5069256;28;20257;-65
2022/08/03 00:40:29;;;;;;;4.07;3.53;;;;;;;;;;5070192;28;20189;-65
2022/08/03 00:42:58;;;;;;;7.60;3.35;;;;;;;;;;5069102;28;20670;-65
2022/08/03 00:45:37;;;;;;;5.32;3.58;;;;;;;;;;5065792;28;20216;-65
2022/08/03 00:48:03;;;;;;;4.82;3.22;;;;;;;;;;5057932;28;20185;-65
2022/08/03 00:50:33;;;;;;;5.38;3.35;;;;;;;;;;5048541;28;20260;-65
2022/08/03 00:52:59;;;;;;;5.05;4.15;;;;;;;;;;5060155;28;20185;-65
2022/08/03 00:55:25;;;;;;;9.10;3.15;;;;;;;;;;5058733;28;20335;-65
2022/08/03 00:57:51;;;;;;;6.10;3.30;;;;;;;;;;5057309;28;20754;-65
2022/08/03 01:00:20;;;;;;;5.20;3.55;;;;;;;;;;5052433;28;20180;-65
2022/08/03 01:02:45;;;;;;;5.90;3.45;;;;;;;;;;5052945;28;20201;-65
2022/08/03 01:05:11;;;;;;;5.78;4.10;;;;;;;;;;5049425;28;20639;-65
2022/08/03 01:07:55;;;;;;;8.40;4.07;;;;;;;;;;5054949;28;20176;-65
2022/08/03 01:10:34;;;;;;;6.18;4.15;;;;;;;;;;5062171;28;20177;-64
2022/08/03 01:13:21;;;;;;;5.88;4.55;;;;;;;;;;5061375;28;20180;-64
2022/08/03 01:15:57;;;;;;;5.07;3.65;;;;;;;;;;5055348;28;20652;-64
2022/08/03 01:18:40;;;;;;;9.13;3.78;;;;;;;;;;5054106;28;20264;-65
2022/08/03 01:21:11;;;;;;;6.65;3.88;;;;;;;;;;5049782;28;20184;-65
2022/08/03 01:24:03;;;;;;;6.95;3.95;;;;;;;;;;5048504;28;20181;-65
2022/08/03 01:26:31;;;;;;;5.43;3.30;;;;;;;;;;5048628;28;20243;-65
2022/08/03 01:29:20;;;;;;;7.40;3.63;;;;;;;;;;5051484;28;20241;-65
2022/08/03 01:31:55;;;;;;;7.85;3.42;;;;;;;;;;5043792;28;20773;-65
2022/08/03 01:34:24;;;;;;;4.35;3.40;;;;;;;;;;5048078;28;20608;-65
2022/08/03 01:36:52;;;;;;;10.45;3.22;;;;;;;;;;5056217;28;20196;-65
2022/08/03 01:39:19;;;;;;;8.63;3.38;;;;;;;;;;5062122;28;20223;-65
2022/08/03 01:41:58;;;;;;;6.75;3.50;;;;;;;;;;5057873;28;20192;-65
2022/08/03 01:44:25;;;;;;;4.30;2.92;;;;;;;;;;5052004;28;20173;-65
2022/08/03 01:46:53;;;;;;;5.50;3.33;;;;;;;;;;5061052;28;20260;-65
2022/08/03 01:49:18;;;;;;;4.78;3.28;;;;;;;;;;5052573;28;20287;-65
2022/08/03 01:51:46;;;;;;;3.88;3.47;;;;;;;;;;5067348;28;20192;-65
2022/08/03 01:54:12;;;;;;;5.53;3.55;;;;;;;;;;5065837;28;20259;-65
2022/08/03 01:56:39;;;;;;;6.82;3.10;;;;;;;;;;5048275;28;20205;-65
2022/08/03 01:59:07;;;;;;;6.03;3.40;;;;;;;;;;5056116;28;20192;-65
2022/08/03 02:01:35;;;;;;;10.82;3.35;;;;;;;;;;5063627;28;20177;-65
2022/08/03 02:04:02;;;;;;;7.93;3.75;;;;;;;;;;5064172;28;20414;-65
2022/08/03 02:06:31;;;;;;;6.03;3.13;;;;;;;;;;5067114;28;21081;-65
2022/08/03 02:08:59;;;;;;;5.13;3.17;;;;;;;;;;5056812;28;20188;-65
2022/08/03 02:11:25;;;;;;;4.43;3.30;;;;;;;;;;5050222;28;20177;-65
2022/08/03 02:13:51;;;;;;;4.93;2.85;;;;;;;;;;5053786;28;20695;-65
2022/08/03 02:16:17;;;;;;;5.07;3.30;;;;;;;;;;5062068;28;20196;-65
2022/08/03 02:18:45;;;;;;;7.93;3.63;;;;;;;;;;5051329;28;20192;-65
2022/08/03 02:21:12;;;;;;;4.95;2.95;;;;;;;;;;5050648;28;20534;-65
2022/08/03 02:23:39;;;;;;;4.68;3.30;;;;;;;;;;5054352;28;20226;-65
2022/08/03 02:26:08;;;;;;;5.05;2.80;;;;;;;;;;5048274;28;20362;-65
2022/08/03 02:28:36;;;;;;;5.45;2.80;;;;;;;;;;5060417;28;20181;-65
2022/08/03 02:31:04;;;;;;;5.03;3.03;;;;;;;;;;5061220;28;20207;-65
2022/08/03 02:33:35;;;;;;;5.43;3.63;;;;;;;;;;5050933;28;20292;-65
2022/08/03 02:36:01;;;;;;;5.20;3.88;;;;;;;;;;5047605;28;20328;-65
2022/08/03 02:38:32;;;;;;;5.70;4.38;;;;;;;;;;5052954;28;20177;-65
2022/08/03 02:40:59;;;;;;;9.52;4.70;;;;;;;;;;5062786;28;20200;-65
2022/08/03 02:43:27;;;;;;;7.70;4.28;;;;;;;;;;5060558;28;20181;-65
2022/08/03 02:45:53;;;;;;;5.75;3.83;;;;;;;;;;5050861;28;20181;-65
2022/08/03 02:48:29;;;;;;;7.75;4.05;;;;;;;;;;5057908;28;20223;-65
2022/08/03 02:50:57;;;;;;;6.00;4.05;;;;;;;;;;5064904;28;20180;-65
2022/08/03 02:53:23;;;;;;;8.68;4.20;;;;;;;;;;5055555;28;20172;-65
2022/08/03 02:55:49;;;;;;;7.18;4.00;;;;;;;;;;5052089;28;20220;-65
2022/08/03 02:58:18;;;;;;;6.82;3.35;;;;;;;;;;5061542;28;20623;-65
2022/08/03 03:00:44;;;;;;;7.72;3.72;;;;;;;;;;5052156;28;20551;-65
2022/08/03 03:03:10;;;;;;;9.30;3.92;;;;;;;;;;5059876;28;20188;-65
2022/08/03 03:05:36;;;;;;;6.47;3.90;;;;;;;;;;5058227;28;20237;-65
2022/08/03 03:08:02;;;;;;;5.70;3.50;;;;;;;;;;5049312;28;20182;-65
2022/08/03 03:10:28;;;;;;;10.95;3.90;;;;;;;;;;5055892;28;20236;-65
2022/08/03 03:12:57;;;;;;;7.75;3.75;;;;;;;;;;5059838;28;20193;-65
2022/08/03 03:15:25;;;;;;;7.07;3.78;;;;;;;;;;5055306;28;20551;-65
2022/08/03 03:17:51;;;;;;;9.90;4.45;;;;;;;;;;5051426;28;20216;-65
2022/08/03 03:20:17;;;;;;;4.78;3.92;;;;;;;;;;5066651;28;20648;-65
2022/08/03 03:22:44;;;;;;;8.45;4.13;;;;;;;;;;5050322;28;20177;-65
2022/08/03 03:25:10;;;;;;;7.65;4.10;;;;;;;;;;5048418;28;20181;-65
2022/08/03 03:27:35;;;;;;;7.30;3.75;;;;;;;;;;5066420;28;20541;-65
2022/08/03 03:30:02;;;;;;;5.28;3.63;;;;;;;;;;5046976;28;20239;-65
2022/08/03 03:32:29;;;;;;;6.97;3.60;;;;;;;;;;5048177;28;20612;-65
2022/08/03 03:34:57;;;;;;;4.93;3.72;;;;;;;;;;5065322;28;20231;-65
2022/08/03 03:37:23;;;;;;;8.05;3.75;;;;;;;;;;5055983;28;20205;-65
2022/08/03 03:39:48;;;;;;;7.38;4.00;;;;;;;;;;5051842;28;20692;-65
2022/08/03 03:42:14;;;;;;;8.25;4.15;;;;;;;;;;5060918;28;20660;-65
2022/08/03 03:44:39;;;;;;;9.50;4.60;;;;;;;;;;5064916;28;20203;-65
2022/08/03 03:47:05;;;;;;;10.95;4.50;;;;;;;;;;5058197;28;20174;-65
2022/08/03 03:49:31;;;;;;;5.72;4.30;;;;;;;;;;5049574;28;20528;-65
2022/08/03 03:51:57;;;;;;;7.70;4.85;;;;;;;;;;5061808;28;20215;-65
2022/08/03 03:54:22;;;;;;;6.05;4.38;;;;;;;;;;5053440;28;20189;-65
2022/08/03 03:56:47;;;;;;;11.52;4.68;;;;;;;;;;5061246;28;20213;-65
2022/08/03 03:59:13;;;;;;;7.18;4.82;;;;;;;;;;5052989;28;20188;-65
2022/08/03 04:01:39;;;;;;;7.15;4.70;;;;;;;;;;5055833;28;20310;-65
2022/08/03 04:12:25;;;;;;;10.43;5.50;;;;;;;;;;5062791;28;20199;-65
2022/08/03 04:14:52;;;;;;;9.43;4.95;;;;;;;;;;5063161;28;20189;-65
2022/08/03 04:17:18;;;;;;;8.77;5.40;;;;;;;;;;5052810;28;20213;-65
2022/08/03 04:19:49;;;;;;;9.43;5.60;;;;;;;;;;5057479;28;20190;-65
2022/08/03 04:22:22;;;;;;;9.45;5.57;;;;;;;;;;5068708;28;20223;-65
2022/08/03 04:24:57;;;;;;;8.75;6.30;;;;;;;;;;5060957;28;20212;-65
2022/08/03 04:27:26;;;;;;;12.45;6.63;;;;;;;;;;5049053;28;20229;-65
2022/08/03 04:29:53;;;;;;;8.43;6.25;;;;;;;;;;5053026;28;20185;-65
2022/08/03 04:32:22;;;;;;;11.77;7.18;;;;;;;;;;5052976;28;20213;-65
2022/08/03 04:34:48;;;;;;;10.88;6.88;;;;;;;;;;5049091;28;20185;-65
2022/08/03 04:37:23;;;;;;;12.73;6.93;;;;;;;;;;5051760;28;20201;-65
2022/08/03 04:39:50;;;;;;;12.63;7.38;;;;;;;;;;5061065;28;20200;-65
2022/08/03 04:42:17;;;;;;;16.17;8.43;;;;;;;;;;5051904;28;20549;-65
2022/08/03 04:44:44;;;;;;;14.02;8.13;;;;;;;;;;5049780;28;20173;-65
2022/08/03 04:47:09;;;;;;;13.10;7.88;;;;;;;;;;5062201;28;20177;-65
2022/08/03 04:49:36;;;;;;;14.10;8.85;;;;;;;;;;5052154;28;20187;-65
2022/08/03 04:52:02;;;;;;;13.30;8.75;;;;;;;;;;5065004;28;20243;-65
2022/08/03 04:54:27;;;;;;;15.55;8.73;;;;;;;;;;5051698;28;20678;-65
2022/08/03 04:56:53;;;;;;;14.73;9.10;;;;;;;;;;5063925;28;20205;-65
2022/08/03 04:59:18;;;;;;;14.48;8.32;;;;;;;;;;5059897;28;20271;-65
2022/08/03 05:01:43;;;;;;;16.80;9.45;;;;;;;;;;5058059;28;20300;-64
2022/08/03 05:04:09;;;;;;;18.85;10.63;;;;;;;;;;5049778;28;20181;-64
2022/08/03 05:06:34;;;;;;;19.15;10.25;;;;;;;;;;5057230;28;20193;-64
2022/08/03 05:09:00;;;;;;;12.50;8.80;;;;;;;;;;5064142;28;20181;-64
2022/08/03 05:11:25;;;;;;;14.65;9.27;;;;;;;;;;5055758;28;20181;-64
2022/08/03 05:13:51;;;;;;;14.13;9.57;;;;;;;;;;5054139;28;20189;-64
2022/08/03 05:16:16;;;;;;;16.88;10.02;;;;;;;;;;5058775;28;20185;-64
2022/08/03 05:18:42;;;;;;;12.30;8.70;;;;;;;;;;4346468;28;10000619;-66
2022/08/03 05:21:13;;;;;;;15.55;7.90;;;;;;;;;;5045997;28;20347;-65
2022/08/03 05:23:39;;;;;;;13.80;7.15;;;;;;;;;;5051719;28;20181;-65
2022/08/03 05:26:04;;;;;;;12.00;7.47;;;;;;;;;;5051720;28;20216;-65
2022/08/03 05:28:29;;;;;;;13.60;8.18;;;;;;;;;;5061737;28;20176;-65
2022/08/03 05:30:55;;;;;;;16.55;8.15;;;;;;;;;;5061044;28;20536;-64
2022/08/03 05:33:20;;;;;;;11.90;7.72;;;;;;;;;;5048557;28;20680;-65
2022/08/03 05:35:46;;;;;;;10.80;6.68;;;;;;;;;;5055244;28;20188;-64
2022/08/03 05:38:11;;;;;;;17.65;8.30;;;;;;;;;;5055301;28;20198;-64
2022/08/03 05:40:36;;;;;;;15.05;7.47;;;;;;;;;;5055779;28;20181;-65
2022/08/03 05:43:02;;;;;;;17.25;7.93;;;;;;;;;;5064636;28;20271;-64
2022/08/03 05:45:27;;;;;;;17.83;8.45;;;;;;;;;;5064215;28;20184;-64
2022/08/03 05:47:52;;;;;;;14.10;7.70;;;;;;;;;;5059288;28;20303;-65
2022/08/03 05:50:19;;;;;;;15.52;7.45;;;;;;;;;;5050187;28;20186;-65
2022/08/03 05:52:44;;;;;;;15.40;7.63;;;;;;;;;;5051700;28;20181;-65
2022/08/03 05:55:11;;;;;;;12.05;7.13;;;;;;;;;;5050816;28;20600;-64
2022/08/03 05:57:37;;;;;;;11.80;7.32;;;;;;;;;;5058507;28;20374;-65
2022/08/03 06:00:10;;;;;;;13.82;7.65;;;;;;;;;;5058135;28;20590;-65
2022/08/03 06:02:37;;;;;;;10.73;6.82;;;;;;;;;;4698092;28;10000310;-65
2022/08/03 06:05:03;;;;;;;10.70;6.63;;;;;;;;;;5051236;28;20374;-65
2022/08/03 06:07:28;;;;;;;12.98;7.13;;;;;;;;;;5057676;28;20634;-65
2022/08/03 06:09:54;;;;;;;12.70;6.75;;;;;;;;;;5055194;28;20189;-65
2022/08/03 06:12:19;;;;;;;14.38;7.35;;;;;;;;;;5054872;28;20219;-65
2022/08/03 06:14:44;;;;;;;14.55;6.55;;;;;;;;;;5044417;28;20185;-65
2022/08/03 06:17:10;;;;;;;13.15;6.65;;;;;;;;;;5053020;28;20212;-65
2022/08/03 06:19:35;;;;;;;14.60;7.30;;;;;;;;;;5052894;28;20173;-65
2022/08/03 06:22:00;;;;;;;16.02;7.00;;;;;;;;;;5054431;28;20192;-65
2022/08/03 06:24:26;;;;;;;14.85;7.15;;;;;;;;;;5049670;28;20228;-65
2022/08/03 06:26:51;;;;;;;12.75;6.20;;;;;;;;;;5053594;28;20224;-65
2022/08/03 06:29:16;;;;;;;19.42;6.32;;;;;;;;;;5055005;28;20181;-65
2022/08/03 06:31:42;;;;;;;14.45;5.88;;;;;;;;;;5050830;28;20432;-65
2022/08/03 06:34:07;;;;;;;16.27;6.05;;;;;;;;;;5052684;28;20657;-65
2022/08/03 06:36:33;;;;;;;12.48;5.65;;;;;;;;;;5051844;28;20345;-65
2022/08/03 06:38:59;;;;;;;16.35;6.13;;;;;;;;;;5055750;28;20181;-62
2022/08/03 06:41:25;;;;;;;14.00;5.40;;;;;;;;;;5054510;28;20192;-65
2022/08/03 06:43:50;;;;;;;13.30;5.53;;;;;;;;;;5052211;28;20199;-65
2022/08/03 06:46:16;;;;;;;11.60;5.32;;;;;;;;;;5047782;28;20657;-65
2022/08/03 06:48:41;;;;;;;12.32;5.13;;;;;;;;;;5062875;28;20173;-62
2022/08/03 06:51:07;;;;;;;13.38;5.43;;;;;;;;;;5059932;28;20188;-65
2022/08/03 06:53:32;;;;;;;15.55;5.05;;;;;;;;;;5050467;28;20682;-65
2022/08/03 06:55:58;;;;;;;16.05;4.80;;;;;;;;;;5057961;28;20184;-65
2022/08/03 06:58:23;;;;;;;15.60;5.10;;;;;;;;;;5056563;28;20536;-65
2022/08/03 07:00:48;;;;;;;13.05;4.10;;;;;;;;;;5050097;28;20247;-65
2022/08/03 07:03:14;;;;;;;12.73;4.45;;;;;;;;;;5047868;28;20176;-64
2022/08/03 07:05:41;;;;;;;12.90;4.00;;;;;;;;;;5053127;28;20267;-63
2022/08/03 07:08:06;;;;;;;15.07;4.30;;;;;;;;;;5049785;28;20181;-63
2022/08/03 07:10:32;;;;;;;12.48;3.65;;;;;;;;;;5048667;28;20535;-63
2022/08/03 07:12:57;;;;;;;14.27;3.38;;;;;;;;;;5057703;28;20177;-63
2022/08/03 07:15:23;;;;;;;8.20;3.38;;;;;;;;;;5066595;28;20165;-63
2022/08/03 07:17:49;;;;;;;12.25;2.92;;;;;;;;;;5066728;28;20291;-64
2022/08/03 07:20:16;;;;;;;19.00;3.47;;;;;;;;;;5066762;28;20276;-63
2022/08/03 07:22:41;;;;;;;11.23;2.72;;;;;;;;;;5057324;28;20185;-63
2022/08/03 07:25:08;;;;;;;9.60;2.90;;;;;;;;;;5062002;28;20179;-63
2022/08/03 07:27:33;;;;;;;10.05;2.80;;;;;;;;;;5063302;28;20594;-63
2022/08/03 07:29:59;;;;;;;10.30;2.53;;;;;;;;;;5052290;28;20177;-64
2022/08/03 07:32:25;;;;;;;10.90;2.63;;;;;;;;;;5055267;28;20197;-64
2022/08/03 07:34:51;;;;;;;11.10;3.38;;;;;;;;;;5064499;28;20533;-64
2022/08/03 07:37:16;;;;;;;10.15;2.90;;;;;;;;;;5053438;28;20220;-64
2022/08/03 07:39:41;;;;;;;14.70;3.00;;;;;;;;;;5056204;28;20178;-63
2022/08/03 07:42:07;;;;;;;9.38;3.30;;;;;;;;;;5062368;28;20913;-63
2022/08/03 07:44:32;;;;;;;10.52;3.45;;;;;;;;;;5060535;28;20185;-65
2022/08/03 07:46:57;;;;;;;11.80;2.85;;;;;;;;;;5055547;28;20173;-64
2022/08/03 07:49:23;;;;;;;11.57;2.72;;;;;;;;;;5057557;28;20192;-64
2022/08/03 07:52:46;;;;;;;9.52;3.90;;;;;;;;;;5050920;28;20200;-64
2022/08/03 07:54:33;;;;;;;13.93;2.88;;;;;;;;;;5060815;28;20769;-64
2022/08/03 07:56:59;;;;;;;7.38;2.65;;;;;;;;;;5060087;28;20246;-63
2022/08/03 07:59:24;;;;;;;8.88;2.50;;;;;;;;;;5056047;28;20487;-63
2022/08/03 08:01:52;;;;;;;6.75;2.55;;;;;;;;;;5054050;28;20647;-63
2022/08/03 08:04:17;;;;;;;9.45;2.92;;;;;;;;;;5063453;28;20253;-63
2022/08/03 08:06:43;;;;;;;9.75;2.53;;;;;;;;;;5055973;28;20185;-63
2022/08/03 08:09:10;;;;;;;9.95;2.30;;;;;;;;;;5053286;28;20198;-63
2022/08/03 08:11:35;;;;;;;5.20;2.80;;;;;;;;;;5058187;28;20584;-63
2022/08/03 08:14:01;;;;;;;9.82;2.42;;;;;;;;;;5067943;28;20177;-65
2022/08/03 08:16:27;;;;;;;11.65;2.88;;;;;;;;;;5063461;28;20262;-63
2022/08/03 08:18:52;;;;;;;10.90;2.45;;;;;;;;;;5060752;28;20222;-64
2022/08/03 08:21:17;;;;;;;10.32;2.95;;;;;;;;;;5061987;28;20232;-64
2022/08/03 08:23:43;;;;;;;13.27;2.80;;;;;;;;;;5054773;28;20268;-64
2022/08/03 08:26:08;;;;;;;14.32;2.70;;;;;;;;;;5058148;28;20339;-64
2022/08/03 08:28:34;;;;;;;11.40;2.47;;;;;;;;;;5063659;28;20180;-64
2022/08/03 08:31:01;;;;;;;12.82;2.92;;;;;;;;;;5057537;28;20224;-64
2022/08/03 08:33:26;;;;;;;13.02;2.90;;;;;;;;;;5056768;28;20188;-64
2022/08/03 08:35:52;;;;;;;13.77;2.30;;;;;;;;;;5058627;28;20181;-65
2022/08/03 08:38:18;;;;;;;16.08;2.63;;;;;;;;;;5051716;28;20195;-64
2022/08/03 08:40:43;;;;;;;13.68;3.22;;;;;;;;;;5060357;28;20185;-65
2022/08/03 08:43:09;;;;;;;13.52;3.13;;;;;;;;;;5057542;28;20232;-66
2022/08/03 08:45:34;;;;;;;17.55;3.35;;;;;;;;;;5049614;28;20268;-65
2022/08/03 08:48:01;;;;;;;16.42;3.40;;;;;;;;;;5069589;28;20181;-64
2022/08/03 08:50:28;;;;;;;16.02;3.88;;;;;;;;;;5058872;28;20185;-64
2022/08/03 08:52:53;;;;;;;15.75;3.00;;;;;;;;;;5056448;28;20667;-64
2022/08/03 08:55:21;;;;;;;15.82;2.75;;;;;;;;;;5054596;28;20178;-64
2022/08/03 08:57:49;;;;;;;15.30;3.03;;;;;;;;;;5061828;28;20332;-66
2022/08/03 09:00:15;;;;;;;12.45;2.80;;;;;;;;;;5060558;28;20185;-66
2022/08/03 09:02:42;;;;;;;9.82;3.22;;;;;;;;;;5050953;28;20185;-66
2022/08/03 09:05:16;;;;;;;12.20;2.92;;;;;;;;;;5059412;28;20193;-65
2022/08/03 09:07:42;;;;;;;23.90;3.10;;;;;;;;;;5054586;28;20268;-64
2022/08/03 09:10:10;;;;;;;16.02;3.15;;;;;;;;;;5057066;28;20177;-66
2022/08/03 09:12:41;;;;;;;18.48;3.95;;;;;;;;;;5052990;28;20778;-64
2022/08/03 09:15:16;;;;;;;14.52;3.50;;;;;;;;;;5053654;28;20628;-64
2022/08/03 09:17:41;;;;;;;12.07;2.58;;;;;;;;;;5064778;28;20216;-64
2022/08/03 09:20:08;;;;;;;16.38;3.92;;;;;;;;;;5052227;28;20207;-64
2022/08/03 09:22:33;;;;;;;13.57;2.92;;;;;;;;;;5065838;28;20612;-64
2022/08/03 09:25:06;;;;;;;14.38;3.95;;;;;;;;;;5049452;28;20212;-64
2022/08/03 09:27:42;;;;;;;16.65;3.00;;;;;;;;;;5054714;28;20190;-64
2022/08/03 09:30:15;;;;;;;12.95;2.80;;;;;;;;;;5067511;28;20192;-64
2022/08/03 09:32:41;;;;;;;15.25;3.80;;;;;;;;;;5067224;28;20214;-65
2022/08/03 09:35:07;;;;;;;15.75;3.28;;;;;;;;;;5051575;28;20616;-65
2022/08/03 09:37:33;;;;;;;20.00;3.85;;;;;;;;;;5053970;28;20212;-64
2022/08/03 09:39:58;;;;;;;16.67;3.63;;;;;;;;;;5062149;28;20209;-69
2022/08/03 09:42:26;;;;;;;20.58;3.50;;;;;;;;;;5050885;28;20188;-64
2022/08/03 09:44:52;;;;;;;18.83;3.72;;;;;;;;;;5058864;28;20189;-66
2022/08/03 09:47:32;;;;;;;18.13;3.75;;;;;;;;;;5048449;28;20270;-64
2022/08/03 09:50:07;;;;;;;16.33;3.38;;;;;;;;;;5062277;28;20563;-65
2022/08/03 09:52:38;;;;;;;18.52;3.40;;;;;;;;;;5053045;28;20193;-64
2022/08/03 09:55:08;;;;;;;21.77;3.17;;;;;;;;;;5057622;28;20505;-64
2022/08/03 09:57:33;;;;;;;18.40;3.65;;;;;;;;;;5059057;28;20231;-69
2022/08/03 10:00:11;;;;;;;20.55;4.28;;;;;;;;;;5056156;28;20226;-64
2022/08/03 10:02:37;;;;;;;19.45;3.08;;;;;;;;;;5055486;28;20197;-68
2022/08/03 10:05:03;;;;;;;18.17;3.95;;;;;;;;;;5060164;28;20182;-64
2022/08/03 10:07:29;;;;;;;16.30;3.05;;;;;;;;;;5064630;28;20193;-65
2022/08/03 10:09:57;;;;;;;18.48;3.97;;;;;;;;;;5064551;28;20554;-65
2022/08/03 10:12:23;;;;;;;19.23;3.67;;;;;;;;;;5056869;28;20202;-65
2022/08/03 10:14:48;;;;;;;17.88;3.10;;;;;;;;;;5051692;28;20184;-64
2022/08/03 10:17:14;;;;;;;21.38;3.53;;;;;;;;;;5051602;28;20213;-64
2022/08/03 10:19:43;;;;;;;16.80;3.67;;;;;;;;;;5065377;28;20705;-65
2022/08/03 10:22:21;;;;;;;22.33;4.22;;;;;;;;;;5063283;28;20564;-64
2022/08/03 10:25:01;;;;;;;15.50;3.40;;;;;;;;;;5053391;28;20199;-64
2022/08/03 10:27:34;;;;;;;21.00;3.65;;;;;;;;;;5064377;28;20716;-65
2022/08/03 10:30:03;;;;;;;26.77;4.90;;;;;;;;;;5053753;28;20184;-64
2022/08/03 10:32:47;;;;;;;22.27;4.13;;;;;;;;;;5054783;28;20679;-64
2022/08/03 10:35:15;;;;;;;15.88;2.80;;;;;;;;;;5054222;28;20176;-64
2022/08/03 10:37:42;;;;;;;27.25;3.65;;;;;;;;;;5055022;28;20505;-65
2022/08/03 10:40:12;;;;;;;18.90;3.20;;;;;;;;;;5060767;28;20188;-64
2022/08/03 10:42:41;;;;;;;23.92;4.38;;;;;;;;;;5048637;28;20181;-66
2022/08/03 10:45:14;;;;;;;27.33;4.00;;;;;;;;;;5048008;28;20209;-65
2022/08/03 10:47:39;;;;;;;25.77;5.35;;;;;;;;;;5054744;28;20184;-67
2022/08/03 10:50:06;;;;;;;15.85;3.85;;;;;;;;;;5055773;28;20330;-73
2022/08/03 10:52:31;;;;;;;25.20;4.95;;;;;;;;;;5062501;28;20189;-65
2022/08/03 10:57:42;;;;;;;20.58;5.47;;;;;;;;;;5053312;28;21359;-65
2022/08/03 11:00:09;;;;;;;18.90;3.90;;;;;;;;;;5046831;28;20178;-66
2022/08/03 11:03:02;;;;;;;29.20;4.50;;;;;;;;;;5051526;28;20205;-66
2022/08/03 11:05:30;;;;;;;15.60;3.80;;;;;;;;;;5057581;28;20172;-66
2022/08/03 11:08:18;;;;;;;19.73;3.97;;;;;;;;;;5054695;28;20181;-65
2022/08/03 11:10:44;;;;;;;24.95;4.10;;;;;;;;;;5053309;28;20205;-71
2022/08/03 11:13:15;;;;;;;24.25;4.15;;;;;;;;;;5051319;28;20258;-66
2022/08/03 11:15:43;;;;;;;19.17;4.63;;;;;;;;;;5055342;28;20181;-65
2022/08/03 11:18:10;;;;;;;22.38;3.60;;;;;;;;;;5061378;28;20579;-66
2022/08/03 11:20:46;;;;;;;22.30;4.10;;;;;;;;;;5065420;28;20562;-72
2022/08/03 11:23:12;;;;;;;18.67;3.42;;;;;;;;;;5054196;28;20545;-65
2022/08/03 11:26:09;;;;;;;20.30;3.33;;;;;;;;;;5056881;28;20221;-65
2022/08/03 11:28:35;;;;;;;15.63;3.42;;;;;;;;;;5053816;28;20180;-64
2022/08/03 11:31:27;;;;;;;22.70;3.50;;;;;;;;;;5050640;28;20264;-63
2022/08/03 11:34:06;;;;;;;22.13;3.60;;;;;;;;;;5055077;28;20221;-63
2022/08/03 11:37:09;;;;;;;19.73;4.18;;;;;;;;;;5050412;28;20204;-63
2022/08/03 11:39:46;;;;;;;21.45;3.33;;;;;;;;;;5057300;28;20663;-70
2022/08/03 11:42:20;;;;;;;18.35;3.65;;;;;;;;;;5052834;28;20177;-63
2022/08/03 11:44:46;;;;;;;21.20;4.93;;;;;;;;;;5055215;28;20560;-70
2022/08/03 11:47:16;;;;;;;14.10;2.95;;;;;;;;;;5054603;28;20182;-63
2022/08/03 11:49:43;;;;;;;23.35;3.58;;;;;;;;;;5048836;28;20178;-64
2022/08/03 11:52:08;;;;;;;16.67;3.55;;;;;;;;;;5066606;28;20197;-63
2022/08/03 11:54:34;;;;;;;23.70;4.38;;;;;;;;;;5062782;28;20227;-64
2022/08/03 11:57:00;;;;;;;22.90;3.92;;;;;;;;;;5052602;28;20209;-65
2022/08/03 11:59:33;;;;;;;21.27;3.83;;;;;;;;;;5047700;28;20185;-66
2022/08/03 12:02:14;;;;;;;18.73;3.63;;;;;;;;;;5049448;28;20188;-65
2022/08/03 12:04:50;;;;;;;14.52;3.33;;;;;;;;;;5053969;28;20177;-64
2022/08/03 12:07:16;;;;;;;16.48;3.45;;;;;;;;;;5052464;28;20672;-64
2022/08/03 12:09:43;;;;;;;20.52;3.05;;;;;;;;;;5057907;28;20183;-65
2022/08/03 12:12:08;;;;;;;26.35;3.90;;;;;;;;;;5055588;28;20177;-65
2022/08/03 12:14:33;;;;;;;20.58;3.22;;;;;;;;;;5070717;28;20181;-66
2022/08/03 12:16:59;;;;;;;17.10;3.05;;;;;;;;;;5054639;28;20261;-65
2022/08/03 12:19:24;;;;;;;14.02;2.83;;;;;;;;;;5067241;28;20645;-65
2022/08/03 12:21:50;;;;;;;21.23;4.00;;;;;;;;;;5068378;28;20203;-68
2022/08/03 12:24:16;;;;;;;18.40;3.10;;;;;;;;;;5069170;28;20187;-64
2022/08/03 12:26:44;;;;;;;14.38;2.70;;;;;;;;;;5060864;28;20308;-64
2022/08/03 12:29:20;;;;;;;17.65;3.50;;;;;;;;;;5069668;28;20679;-66
2022/08/03 12:31:46;;;;;;;14.27;3.17;;;;;;;;;;5069670;28;20196;-64
2022/08/03 12:34:12;;;;;;;18.60;3.30;;;;;;;;;;5049077;28;20557;-64
2022/08/03 12:36:48;;;;;;;13.40;3.22;;;;;;;;;;5063248;28;20200;-65
2022/08/03 12:39:14;;;;;;;11.82;2.78;;;;;;;;;;5054105;28;20226;-65
2022/08/03 12:41:39;;;;;;;14.05;2.92;;;;;;;;;;5059815;28;20570;-65
2022/08/03 12:44:07;;;;;;;16.75;2.95;;;;;;;;;;5054123;28;20189;-65
2022/08/03 12:46:35;;;;;;;19.85;2.90;;;;;;;;;;5049610;28;20219;-68
2022/08/03 12:49:10;;;;;;;11.70;2.25;;;;;;;;;;5051554;28;20184;-65
2022/08/03 12:51:57;;;;;;;14.52;2.58;;;;;;;;;;5059971;28;20172;-64
2022/08/03 12:54:28;;;;;;;8.32;2.55;;;;;;;;;;5051974;28;20184;-64
2022/08/03 12:57:04;;;;;;;11.20;2.72;;;;;;;;;;5059929;28;20204;-65
2022/08/03 12:59:41;;;;;;;14.82;2.55;;;;;;;;;;5052632;28;20188;-70
2022/08/03 13:02:21;;;;;;;13.60;2.25;;;;;;;;;;5049846;28;20232;-66
2022/08/03 13:04:48;;;;;;;16.88;2.85;;;;;;;;;;5067513;28;20181;-65
2022/08/03 13:07:15;;;;;;;12.15;2.65;;;;;;;;;;5057378;28;20546;-65
2022/08/03 13:09:46;;;;;;;9.98;2.30;;;;;;;;;;5065598;28;20193;-65
2022/08/03 13:12:14;;;;;;;15.88;2.83;;;;;;;;;;5053277;28;20172;-65
2022/08/03 13:14:43;;;;;;;14.52;3.05;;;;;;;;;;5050495;28;20188;-65
2022/08/03 13:17:09;;;;;;;11.13;2.60;;;;;;;;;;5060944;28;20223;-65
2022/08/03 13:19:36;;;;;;;14.20;3.20;;;;;;;;;;5054466;28;20176;-65
2022/08/03 13:22:24;;;;;;;12.98;2.90;;;;;;;;;;5069642;28;20631;-65
2022/08/03 13:24:51;;;;;;;16.55;2.90;;;;;;;;;;5057718;28;20654;-65
2022/08/03 13:27:17;;;;;;;13.52;2.53;;;;;;;;;;5061936;28;20995;-66
2022/08/03 13:29:43;;;;;;;14.35;2.65;;;;;;;;;;5069130;28;20271;-64
2022/08/03 13:32:09;;;;;;;18.63;3.53;;;;;;;;;;5058603;28;20364;-64
2022/08/03 13:34:35;;;;;;;15.55;3.08;;;;;;;;;;5054902;28;20875;-65
2022/08/03 13:37:00;;;;;;;12.40;2.80;;;;;;;;;;5061073;28;20244;-66
2022/08/03 13:39:26;;;;;;;10.35;2.53;;;;;;;;;;5057529;28;20181;-66
2022/08/03 13:41:51;;;;;;;20.00;2.78;;;;;;;;;;5061086;28;20523;-65
2022/08/03 13:44:18;;;;;;;19.83;3.28;;;;;;;;;;5054097;28;20184;-71
2022/08/03 13:46:43;;;;;;;17.70;3.13;;;;;;;;;;5063038;28;20200;-65
2022/08/03 13:49:09;;;;;;;10.32;2.33;;;;;;;;;;5065965;28;20207;-64
2022/08/03 13:51:34;;;;;;;12.98;2.67;;;;;;;;;;5053321;28;20608;-64
2022/08/03 13:54:00;;;;;;;14.73;2.70;;;;;;;;;;5050547;28;20236;-64
2022/08/03 13:56:26;;;;;;;19.23;3.30;;;;;;;;;;5050724;28;20306;-65
2022/08/03 13:58:51;;;;;;;13.20;2.95;;;;;;;;;;5048378;28;20610;-66
2022/08/03 14:01:17;;;;;;;15.00;2.40;;;;;;;;;;5049098;28;20267;-65
2022/08/03 14:03:42;;;;;;;14.05;2.83;;;;;;;;;;5056671;28;20692;-66
2022/08/03 14:06:08;;;;;;;13.18;2.70;;;;;;;;;;5053998;28;20195;-65
2022/08/03 14:08:33;;;;;;;11.00;2.78;;;;;;;;;;5056029;28;20180;-63
2022/08/03 14:10:59;;;;;;;15.25;3.13;;;;;;;;;;5052857;28;20192;-65
2022/08/03 14:13:25;;;;;;;11.18;3.15;;;;;;;;;;5047577;28;20378;-63
2022/08/03 14:15:50;;;;;;;10.75;2.92;;;;;;;;;;5047099;28;20636;-63
2022/08/03 14:18:16;;;;;;;11.32;2.85;;;;;;;;;;5050499;28;20274;-64
2022/08/03 14:20:43;;;;;;;10.27;3.13;;;;;;;;;;5047927;28;20185;-64
2022/08/03 14:23:08;;;;;;;14.70;3.00;;;;;;;;;;5050987;28;20212;-64
2022/08/03 14:25:34;;;;;;;10.05;2.35;;;;;;;;;;5052251;28;20731;-64
2022/08/03 14:27:59;;;;;;;10.40;2.35;;;;;;;;;;5050783;28;20243;-64
2022/08/03 14:30:24;;;;;;;10.65;2.33;;;;;;;;;;5052668;28;20184;-64
2022/08/03 14:32:50;;;;;;;12.93;2.10;;;;;;;;;;5057054;28;20216;-64
2022/08/03 14:35:15;;;;;;;11.27;2.22;;;;;;;;;;5052193;28;20248;-70
2022/08/03 14:37:40;;;;;;;8.02;1.88;;;;;;;;;;5048181;28;20189;-64
2022/08/03 14:40:06;;;;;;;7.97;2.60;;;;;;;;;;5053164;28;20191;-63
2022/08/03 14:42:31;;;;;;;10.68;2.40;;;;;;;;;;5047604;28;20191;-63
2022/08/03 14:44:57;;;;;;;9.63;2.58;;;;;;;;;;5049114;28;20656;-63
2022/08/03 14:47:22;;;;;;;15.00;2.80;;;;;;;;;;5049332;28;20176;-65
2022/08/03 14:49:48;;;;;;;12.38;2.28;;;;;;;;;;5049026;28;20204;-64